Omaha — WDC9423 — position and weather

sailwx.info

Track history (hours):
 
Tides and Currents Weather Stations Pressure Air Temp Water Temp Dewpoint Dewpoint Depression Visibility Wind Speed Wind Dir Waves Ship Positions

Omaha

Owner: Turn services, Inc, New Orleans, LA. More information available from US FCC via Universal Licensing System and Coast Guard Vessel Documentation Center.

Last reported at 2015-Apr-28 04:27 UTC. Time now 2015-Apr-28 06:51 UTC.
Position N 29°55' W 089°56'.

Length 13 m; draft 3.5 m.

Type: Pilot. MMSI: 367102030.

Date/timePositionNaut miles runAvg speedWind from/ knotsBaromVisibWave heightAir tempDewpointWater temp
2015-Apr-28 04:27N 29°55' W 089°56'0 0.3
2015-Apr-28 03:32N 29°55' W 089°56'0 0.0
2015-Apr-28 02:33N 29°55' W 089°56'0 0.2
2015-Apr-28 01:19N 29°55' W 089°56'0 0.1
2015-Apr-28 00:18N 29°55' W 089°56'0 0.0
2015-Apr-27 19:30N 29°55' W 089°56'8 0.7
2015-Apr-27 08:26N 29°55' W 090°05'7 0.3
2015-Apr-26 06:25N 29°55' W 089°57'2 0.1
2015-Apr-25 05:14N 29°56' W 089°59'2 2.7
2015-Apr-25 04:32N 29°55' W 089°57'3 1.6
2015-Apr-25 02:33N 29°57' W 089°60'0 0.0
2015-Apr-25 00:33N 29°57' W 089°60'1 0.2
2015-Apr-24 20:27N 29°56' W 090°01'4 4.1
2015-Apr-24 19:27N 29°55' W 090°05'0 0.2
2015-Apr-24 18:21N 29°55' W 090°05'1 0.8
2015-Apr-24 17:29N 29°55' W 090°04'3 3.2
2015-Apr-24 16:32N 29°57' W 090°01'2 0.3
2015-Apr-24 08:24N 29°56' W 089°59'1 0.3
2015-Apr-24 04:33N 29°56' W 090°00'1 0.4
2015-Apr-24 02:07N 29°56' W 089°59'1 1.7
2015-Apr-24 01:28N 29°57' W 090°00'0 0.0
2015-Apr-23 05:32N 29°57' W 090°00'0 0.1
2015-Apr-23 04:30N 29°57' W 090°00'4 1.6
2015-Apr-23 02:09N 29°55' W 089°56'1 0.3
2015-Apr-23 00:25N 29°55' W 089°57'  
2015-Apr-19 16:20N 29°55' W 089°56'0 0.0
2015-Apr-19 15:27N 29°55' W 089°56'4 0.3
2015-Apr-19 01:09N 29°57' W 090°00'1 0.2
2015-Apr-18 19:17N 29°56' W 089°59'1 0.1
2015-Apr-18 04:33N 29°57' W 090°00'  
Track history (hours):
 
Tides and Currents Weather Stations Pressure Air Temp Water Temp Dewpoint Dewpoint Depression Visibility Wind Speed Wind Dir Waves Ship Positions

Omaha

Owner: Turn services, Inc, New Orleans, LA. More information available from US FCC via Universal Licensing System and Coast Guard Vessel Documentation Center.

Last reported at 2015-Apr-28 04:27 UTC. Time now 2015-Apr-28 06:51 UTC.
Position N 29°55' W 089°56'.

Length 13 m; draft 3.5 m.

Type: Pilot. MMSI: 367102030.

Date/timePositionNaut miles runAvg speedWind from/ knotsBaromVisibWave heightAir tempDewpointWater temp
2015-Apr-28 04:27N 29°55' W 089°56'0 0.3
2015-Apr-28 03:32N 29°55' W 089°56'0 0.0
2015-Apr-28 02:33N 29°55' W 089°56'0 0.2
2015-Apr-28 01:19N 29°55' W 089°56'0 0.1
2015-Apr-28 00:18N 29°55' W 089°56'0 0.0
2015-Apr-27 19:30N 29°55' W 089°56'8 0.7
2015-Apr-27 08:26N 29°55' W 090°05'7 0.3
2015-Apr-26 06:25N 29°55' W 089°57'2 0.1
2015-Apr-25 05:14N 29°56' W 089°59'2 2.7
2015-Apr-25 04:32N 29°55' W 089°57'3 1.6
2015-Apr-25 02:33N 29°57' W 089°60'0 0.0
2015-Apr-25 00:33N 29°57' W 089°60'1 0.2
2015-Apr-24 20:27N 29°56' W 090°01'4 4.1
2015-Apr-24 19:27N 29°55' W 090°05'0 0.2
2015-Apr-24 18:21N 29°55' W 090°05'1 0.8
2015-Apr-24 17:29N 29°55' W 090°04'3 3.2
2015-Apr-24 16:32N 29°57' W 090°01'2 0.3
2015-Apr-24 08:24N 29°56' W 089°59'1 0.3
2015-Apr-24 04:33N 29°56' W 090°00'1 0.4
2015-Apr-24 02:07N 29°56' W 089°59'1 1.7
2015-Apr-24 01:28N 29°57' W 090°00'0 0.0
2015-Apr-23 05:32N 29°57' W 090°00'0 0.1
2015-Apr-23 04:30N 29°57' W 090°00'4 1.6
2015-Apr-23 02:09N 29°55' W 089°56'1 0.3
2015-Apr-23 00:25N 29°55' W 089°57'  
2015-Apr-19 16:20N 29°55' W 089°56'0 0.0
2015-Apr-19 15:27N 29°55' W 089°56'4 0.3
2015-Apr-19 01:09N 29°57' W 090°00'1 0.2
2015-Apr-18 19:17N 29°56' W 089°59'1 0.1
2015-Apr-18 04:33N 29°57' W 090°00'  

Dump ship's entire track history